Time;durP1;ratioP1;P1;durP2;ratioP2;P2;SDS_P1;SDS_P2;PMS_P1;PMS_P2;Temp;Humidity;BMP_temperature;BMP_pressure;BME280_temperature;BME280_humidity;BME280_pressure;Samples;Min_cycle;Max_cycle;Signal;HPM_P1;HPM_P2
2022/06/23 00:09:50;;;;;;;3.45;1.13;;;17.50;99.90;;;;;;20857500;28;20040;-39
2022/06/23 00:19:59;;;;;;;1.70;0.80;;;17.30;99.90;;;;;;20853266;28;20658;-39
2022/06/23 00:30:06;;;;;;;2.47;0.90;;;17.20;99.90;;;;;;20852869;28;20492;-39
2022/06/23 00:40:12;;;;;;;1.93;0.83;;;17.00;99.90;;;;;;20859763;28;20665;-39
2022/06/23 00:50:31;;;;;;;16.10;1.67;;;17.00;99.90;;;;;;20855345;28;20041;-39
2022/06/23 01:00:39;;;;;;;2.30;0.90;;;16.90;99.90;;;;;;20853222;28;20691;-39
2022/06/23 01:10:56;;;;;;;3.17;1.05;;;16.80;99.90;;;;;;20869512;28;20036;-39
2022/06/23 01:21:22;;;;;;;4.78;1.40;;;16.80;99.90;;;;;;20870794;28;20052;-39
2022/06/23 01:31:29;;;;;;;7.50;1.20;;;16.60;99.90;;;;;;20877201;28;20044;-39
2022/06/23 01:41:41;;;;;;;2.70;1.15;;;16.50;99.90;;;;;;20887896;28;21542;-39
2022/06/23 01:51:49;;;;;;;2.15;1.35;;;16.40;99.90;;;;;;20895583;28;20033;-39
2022/06/23 02:02:19;;;;;;;2.22;1.08;;;16.40;99.90;;;;;;20868083;28;20045;-39
2022/06/23 02:12:24;;;;;;;2.95;1.30;;;16.20;99.90;;;;;;20861823;28;20033;-39
2022/06/23 02:22:41;;;;;;;1.92;1.00;;;16.10;99.90;;;;;;20865521;28;20563;-39
2022/06/23 02:33:27;;;;;;;1.90;0.70;;;16.00;99.90;;;;;;20875637;28;20071;-39
2022/06/23 02:43:35;;;;;;;2.22;1.00;;;16.00;99.90;;;;;;20743726;28;20681;-40
2022/06/23 02:53:52;;;;;;;2.35;1.23;;;15.80;99.90;;;;;;20858508;28;20492;-39
2022/06/23 03:04:26;;;;;;;2.43;1.10;;;15.70;99.90;;;;;;20851325;28;21010;-39
2022/06/23 03:14:42;;;;;;;2.47;1.17;;;15.70;99.90;;;;;;20861617;28;20548;-39
2022/06/23 03:24:49;;;;;;;4.15;1.38;;;15.60;99.90;;;;;;20862207;28;20048;-39
2022/06/23 03:34:59;;;;;;;2.80;1.53;;;15.60;99.90;;;;;;20859912;28;20048;-39
2022/06/23 03:45:27;;;;;;;4.00;1.27;;;15.60;99.90;;;;;;20856799;28;20071;-39
2022/06/23 03:55:35;;;;;;;3.33;1.77;;;15.50;99.90;;;;;;20863953;28;20833;-39
2022/06/23 04:05:54;;;;;;;1.90;1.05;;;15.40;99.90;;;;;;20861331;28;20034;-39
2022/06/23 04:16:04;;;;;;;3.83;1.20;;;15.50;99.90;;;;;;20855355;28;20543;-39
2022/06/23 04:26:13;;;;;;;3.22;1.45;;;15.40;99.90;;;;;;20848977;28;20041;-39
2022/06/23 04:36:22;;;;;;;3.33;2.00;;;15.40;99.90;;;;;;20863328;28;20044;-39
2022/06/23 04:46:36;;;;;;;2.47;1.40;;;15.50;99.90;;;;;;20849485;28;20181;-39
2022/06/23 04:56:49;;;;;;;3.50;1.35;;;15.70;99.90;;;;;;20848770;28;20032;-39
2022/06/23 05:06:54;;;;;;;3.25;1.20;;;16.10;99.90;;;;;;20854693;28;20520;-39
2022/06/23 05:17:06;;;;;;;4.47;1.67;;;16.50;99.90;;;;;;20884493;28;20071;-39
2022/06/23 05:27:19;;;;;;;4.55;1.48;;;16.90;99.90;;;;;;20888899;28;20087;-39
2022/06/23 05:37:29;;;;;;;5.07;2.15;;;17.10;99.90;;;;;;20891826;28;20060;-39
2022/06/23 05:47:32;;;;;;;2.15;0.80;;;17.40;99.90;;;;;;20889161;28;20609;-39
2022/06/23 05:57:52;;;;;;;3.00;1.25;;;17.80;99.90;;;;;;20896733;28;20090;-39
2022/06/23 06:07:53;;;;;;;3.95;1.20;;;18.10;99.90;;;;;;20889810;28;20512;-39
2022/06/23 06:18:05;;;;;;;3.92;1.60;;;18.40;99.90;;;;;;20892839;28;20028;-39
2022/06/23 06:28:21;;;;;;;2.08;1.08;;;18.70;99.90;;;;;;20896831;28;20047;-39
2022/06/23 06:38:24;;;;;;;3.58;1.05;;;19.20;99.90;;;;;;20893263;28;20048;-39
2022/06/23 06:48:35;;;;;;;3.92;1.08;;;19.40;99.90;;;;;;20889239;28;20044;-39
2022/06/23 06:58:56;;;;;;;1.88;0.90;;;19.50;99.90;;;;;;20894154;28;20035;-39
2022/06/23 07:09:24;;;;;;;2.47;1.17;;;20.00;99.90;;;;;;20887703;28;20477;-39
2022/06/23 07:19:36;;;;;;;2.35;1.50;;;20.60;99.90;;;;;;20856597;28;20051;-39
2022/06/23 07:29:38;;;;;;;2.25;0.95;;;21.10;99.90;;;;;;20874649;28;20029;-40
2022/06/23 07:39:40;;;;;;;2.72;1.10;;;21.20;99.90;;;;;;20869238;28;20037;-39
2022/06/23 07:49:41;;;;;;;2.95;1.40;;;21.50;99.90;;;;;;20869448;28;20044;-39
2022/06/23 07:59:58;;;;;;;1.85;1.00;;;21.70;99.90;;;;;;20864873;28;20428;-39
2022/06/23 08:10:06;;;;;;;1.73;0.85;;;21.90;99.90;;;;;;20863242;28;20390;-39
2022/06/23 08:20:10;;;;;;;4.63;2.28;;;22.10;99.90;;;;;;20869712;28;20044;-39
2022/06/23 08:30:16;;;;;;;2.03;1.02;;;22.50;99.90;;;;;;20866974;28;20036;-39
2022/06/23 08:40:33;;;;;;;2.63;1.00;;;23.00;99.90;;;;;;20850656;28;20036;-39
2022/06/23 08:50:35;;;;;;;4.03;1.50;;;23.40;99.90;;;;;;20883926;28;20511;-39
2022/06/23 09:01:02;;;;;;;2.03;1.10;;;23.80;99.90;;;;;;20887654;28;20394;-39
2022/06/23 09:11:18;;;;;;;2.47;1.38;;;24.10;99.90;;;;;;20883375;28;20523;-40
2022/06/23 09:21:43;;;;;;;2.73;1.27;;;24.60;99.90;;;;;;20882376;28;20049;-39
2022/06/23 09:31:53;;;;;;;4.50;1.77;;;24.90;99.90;;;;;;20879201;28;21554;-39
2022/06/23 09:42:21;;;;;;;3.45;1.88;;;25.20;99.90;;;;;;20879876;28;20315;-39
2022/06/23 09:52:40;;;;;;;;;;;25.50;99.90;;;;;;20884319;28;20500;-39
2022/06/23 10:03:13;;;;;;;4.30;2.10;;;25.90;99.90;;;;;;20889173;28;19959;-40
2022/06/23 10:13:46;;;;;;;4.38;1.92;;;26.10;99.90;;;;;;20849361;28;20032;-39
2022/06/23 10:23:50;;;;;;;2.47;1.30;;;26.50;99.90;;;;;;20889426;28;21544;-39
2022/06/23 10:34:15;;;;;;;4.18;1.85;;;26.80;99.90;;;;;;20885944;28;20037;-39
2022/06/23 10:44:44;;;;;;;2.90;1.55;;;27.30;99.90;;;;;;20883611;28;20071;-40
2022/06/23 10:55:19;;;;;;;3.22;1.40;;;27.50;99.90;;;;;;20900905;28;20041;-39
2022/06/23 11:05:45;;;;;;;3.60;1.73;;;27.80;99.90;;;;;;20889766;28;20233;-39
2022/06/23 11:16:12;;;;;;;3.45;1.45;;;28.20;99.90;;;;;;20892381;28;20361;-40
2022/06/23 11:26:22;;;;;;;;;;;28.50;99.90;;;;;;20890896;28;21610;-39
2022/06/23 11:37:02;;;;;;;3.67;1.65;;;28.80;99.90;;;;;;20890332;28;19923;-40
2022/06/23 11:47:18;;;;;;;11.52;1.65;;;29.20;99.90;;;;;;20892727;28;20579;-40
2022/06/23 11:57:47;;;;;;;6.43;2.10;;;29.30;99.90;;;;;;20893582;28;20037;-40
2022/06/23 12:08:10;;;;;;;6.03;1.85;;;29.50;99.90;;;;;;20892086;28;20357;-39
2022/06/23 12:18:21;;;;;;;2.70;1.63;;;29.80;99.90;;;;;;20892898;28;20036;-39
2022/06/23 12:28:40;;;;;;;5.65;1.25;;;30.00;99.90;;;;;;20892877;28;20361;-39
2022/06/23 12:38:51;;;;;;;2.95;1.15;;;30.30;99.90;;;;;;20887528;28;20033;-39
2022/06/23 12:49:13;;;;;;;3.42;1.23;;;30.40;99.90;;;;;;20879612;28;20609;-40
2022/06/23 12:59:28;;;;;;;2.67;1.20;;;30.90;99.80;;;;;;20888700;28;20468;-39
2022/06/23 13:09:47;;;;;;;1.38;0.85;;;30.30;99.90;;;;;;20907119;28;20036;-39
2022/06/23 13:19:58;;;;;;;4.70;1.10;;;30.50;99.90;;;;;;20893019;28;20277;-40
2022/06/23 13:30:06;;;;;;;4.28;1.48;;;30.90;99.90;;;;;;20897456;28;20514;-39
2022/06/23 13:40:38;;;;;;;3.83;1.50;;;30.70;99.50;;;;;;20897689;28;20064;-40
2022/06/23 13:50:57;;;;;;;2.63;1.00;;;30.70;99.40;;;;;;20900805;28;20071;-39
2022/06/23 14:01:12;;;;;;;3.28;1.05;;;31.10;98.80;;;;;;20889069;28;20040;-39
2022/06/23 14:11:42;;;;;;;6.13;1.33;;;30.80;98.70;;;;;;20889298;28;20048;-39
2022/06/23 14:21:54;;;;;;;3.35;1.45;;;30.80;97.90;;;;;;20885677;28;20525;-39
2022/06/23 14:32:04;;;;;;;3.35;1.38;;;30.80;98.80;;;;;;20890112;28;20488;-39
2022/06/23 14:42:46;;;;;;;5.57;1.63;;;30.80;98.80;;;;;;20893395;28;20426;-40
2022/06/23 14:53:02;;;;;;;2.03;1.15;;;30.70;98.60;;;;;;20890183;28;20799;-40
2022/06/23 15:03:07;;;;;;;;;;;30.50;98.70;;;;;;20889183;28;20037;-39
2022/06/23 15:13:22;;;;;;;2.10;1.00;;;30.50;98.00;;;;;;20879158;28;20182;-39
2022/06/23 15:23:46;;;;;;;2.42;1.25;;;30.50;98.40;;;;;;20892644;28;20117;-40
2022/06/23 15:34:07;;;;;;;2.67;1.48;;;30.40;99.10;;;;;;20882264;28;21452;-40
2022/06/23 15:44:30;;;;;;;1.85;1.23;;;30.20;98.70;;;;;;20887609;28;20149;-40
2022/06/23 15:54:50;;;;;;;2.03;0.90;;;30.20;98.30;;;;;;20886746;28;20588;-39
2022/06/23 16:04:57;;;;;;;2.25;1.00;;;30.30;97.70;;;;;;20893167;28;21073;-39
2022/06/23 16:15:31;;;;;;;2.63;1.35;;;30.30;97.90;;;;;;20887438;28;20032;-39
2022/06/23 16:25:53;;;;;;;4.32;2.03;;;30.40;98.10;;;;;;20879515;28;20408;-40
2022/06/23 16:36:09;;;;;;;2.05;0.90;;;30.30;96.90;;;;;;20881953;28;20039;-40
2022/06/23 16:46:33;;;;;;;1.85;0.88;;;30.20;97.40;;;;;;20877962;28;20400;-39
2022/06/23 16:56:53;;;;;;;2.55;0.80;;;30.20;97.00;;;;;;20876846;28;20774;-39
2022/06/23 17:07:20;;;;;;;2.08;0.60;;;30.40;96.50;;;;;;20876272;28;20044;-39
2022/06/23 17:17:56;;;;;;;2.97;1.08;;;30.10;97.60;;;;;;20898363;28;20048;-39
2022/06/23 17:28:15;;;;;;;2.67;0.70;;;30.10;97.60;;;;;;20832927;28;20213;-39
2022/06/23 17:49:04;;;;;;;2.40;1.33;;;29.60;97.70;;;;;;20893357;28;20170;-39
2022/06/23 17:59:14;;;;;;;2.10;1.02;;;29.30;98.90;;;;;;20902653;28;20040;-40
2022/06/23 18:09:22;;;;;;;2.08;0.95;;;29.30;99.20;;;;;;20895590;28;20583;-39
2022/06/23 18:19:31;;;;;;;1.90;0.82;;;29.10;99.90;;;;;;20869033;28;20039;-39
2022/06/23 18:29:41;;;;;;;3.70;1.35;;;28.90;99.50;;;;;;20891782;28;21534;-40
2022/06/23 18:40:10;;;;;;;3.95;2.17;;;28.60;99.90;;;;;;20880377;28;20367;-40
2022/06/23 18:50:20;;;;;;;3.45;2.03;;;28.20;99.90;;;;;;20890358;28;20472;-40
2022/06/23 19:00:34;;;;;;;3.08;2.00;;;27.50;99.90;;;;;;20888079;28;20484;-39
2022/06/23 19:10:46;;;;;;;3.97;2.15;;;27.00;99.90;;;;;;20890249;28;20693;-39
2022/06/23 19:21:28;;;;;;;4.38;2.20;;;26.60;99.90;;;;;;20892658;28;20392;-39
2022/06/23 19:31:37;;;;;;;4.70;2.22;;;26.30;99.90;;;;;;20889661;28;20439;-39
2022/06/23 19:41:59;;;;;;;3.00;1.45;;;26.10;99.90;;;;;;20882811;28;20040;-39
2022/06/23 19:52:01;;;;;;;2.95;1.60;;;25.70;99.90;;;;;;20879876;28;20029;-39
2022/06/23 20:02:57;;;;;;;2.22;1.50;;;25.50;99.90;;;;;;20874100;28;20044;-39
2022/06/23 20:13:12;;;;;;;3.33;1.80;;;25.20;99.90;;;;;;20771832;28;21425;-39
2022/06/23 20:23:48;;;;;;;2.15;1.35;;;24.90;99.90;;;;;;20877902;28;20064;-40
2022/06/23 20:34:27;;;;;;;2.15;1.17;;;24.80;99.90;;;;;;20879940;28;20025;-39
2022/06/23 20:44:51;;;;;;;3.15;2.05;;;24.60;99.90;;;;;;20872617;28;20082;-39
2022/06/23 20:55:13;;;;;;;2.63;1.25;;;24.40;99.90;;;;;;20883499;28;20465;-39
2022/06/23 21:05:57;;;;;;;2.67;1.25;;;24.20;99.90;;;;;;20878840;28;20041;-40
2022/06/23 21:16:31;;;;;;;2.75;1.35;;;24.20;99.90;;;;;;20852654;28;20049;-39
2022/06/23 21:26:53;;;;;;;4.45;2.50;;;24.20;99.90;;;;;;20873329;28;21342;-39
2022/06/23 21:36:57;;;;;;;5.80;1.67;;;24.20;99.90;;;;;;20876119;28;20127;-39
2022/06/23 21:47:18;;;;;;;2.05;1.55;;;24.00;99.90;;;;;;20872124;28;20528;-39
2022/06/23 21:57:19;;;;;;;3.40;1.63;;;23.90;99.90;;;;;;20887792;28;20025;-39
2022/06/23 22:07:33;;;;;;;7.75;2.67;;;23.90;99.90;;;;;;20885247;28;20036;-39
2022/06/23 22:17:45;;;;;;;3.63;2.08;;;23.80;99.90;;;;;;20887915;28;20491;-39
2022/06/23 22:27:50;;;;;;;4.82;2.28;;;23.80;99.90;;;;;;20867775;28;20174;-39
2022/06/23 22:37:51;;;;;;;7.32;3.05;;;23.60;99.90;;;;;;20878905;28;20927;-39
2022/06/23 22:48:24;;;;;;;5.45;3.63;;;23.50;99.90;;;;;;20894485;28;20037;-39
2022/06/23 22:58:53;;;;;;;3.47;2.05;;;23.40;99.90;;;;;;20886845;28;20032;-39
2022/06/23 23:08:54;;;;;;;4.35;2.22;;;23.30;99.90;;;;;;20874163;28;20056;-39
2022/06/23 23:18:57;;;;;;;3.53;1.73;;;23.20;99.90;;;;;;20880135;28;20029;-39
2022/06/23 23:28:58;;;;;;;3.13;1.77;;;23.20;99.90;;;;;;20875074;28;20688;-39
2022/06/23 23:39:13;;;;;;;3.28;1.75;;;23.20;99.90;;;;;;20884032;28;20737;-39
2022/06/23 23:49:29;;;;;;;3.35;1.38;;;23.20;99.90;;;;;;20880440;28;20420;-39
2022/06/23 23:59:30;;;;;;;4.85;2.28;;;23.20;99.90;;;;;;20875999;28;20033;-39
